createdAt,value
2017-10-08T00:04:13.217Z,99.99
2017-10-08T00:11:26.649Z,99.99
2017-10-08T00:13:40.732Z,99.99
2017-10-08T00:24:43.230Z,99.99
2017-10-08T00:48:55.106Z,99.99
2017-10-08T00:56:40.587Z,99.99
2017-10-08T01:02:11.987Z,99.99
2017-10-08T01:04:25.790Z,99.99
2017-10-08T01:06:39.736Z,99.99
2017-10-08T01:09:25.564Z,99.99
2017-10-08T01:14:25.197Z,99.99
2017-10-08T01:26:31.244Z,99.99
2017-10-08T01:37:33.487Z,99.99
2017-10-08T01:39:15.207Z,99.99
2017-10-08T01:41:29.253Z,99.99
2017-10-08T01:43:43.054Z,99.99
2017-10-08T01:46:28.883Z,99.99
2017-10-08T01:49:14.459Z,99.99
2017-10-08T01:59:13.400Z,99.99
2017-10-08T02:01:58.977Z,99.89
2017-10-08T02:04:13.025Z,99.99
2017-10-08T02:05:55.045Z,99.99
2017-10-08T02:10:22.265Z,99.79
2017-10-08T02:12:36.316Z,99.41
2017-10-08T02:13:46.569Z,99.03
2017-10-08T02:15:28.591Z,99.22
2017-10-08T02:17:10.293Z,99.41
2017-10-08T02:22:09.956Z,99.6
2017-10-08T02:23:52.229Z,99.13
2017-10-08T02:25:33.939Z,98.55
2017-10-08T02:30:33.579Z,97.6
2017-10-08T02:37:46.067Z,95.6
2017-10-08T02:40:31.898Z,95.41
2017-10-08T02:42:45.391Z,95.7
2017-10-08T02:48:16.800Z,94.46
2017-10-08T02:49:59.074Z,94.37
2017-10-08T02:51:41.108Z,94.27
2017-10-08T03:07:11.152Z,93.22
2017-10-08T03:11:38.999Z,93.08
2017-10-08T03:21:37.939Z,91.65
2017-10-08T03:27:15.773Z,90.89
2017-10-08T03:31:43.071Z,90.7
2017-10-08T03:37:46.504Z,90.7
2017-10-08T03:42:13.816Z,90.7
2017-10-08T03:47:13.454Z,90.89
2017-10-08T03:49:59.014Z,91.08
2017-10-08T03:52:44.589Z,90.5
2017-10-08T03:55:30.417Z,91.08
2017-10-08T03:59:26.184Z,91.65
2017-10-08T04:01:08.206Z,91.36
2017-10-08T04:03:21.693Z,91.17
2017-10-08T04:08:52.793Z,91.46
2017-10-08T04:29:54.263Z,90.79
2017-10-08T04:40:24.987Z,90.6
2017-10-08T04:45:24.348Z,90.7
2017-10-08T04:50:55.758Z,90.98
2017-10-08T04:55:55.395Z,90.98
2017-10-08T05:01:26.805Z,90.6
2017-10-08T05:10:53.670Z,91.17
2017-10-08T05:13:07.476Z,91.17
2017-10-08T05:14:49.504Z,91.08
2017-10-08T05:23:06.740Z,90.56
2017-10-08T05:24:48.459Z,90.46
2017-10-08T05:35:19.181Z,89.41
2017-10-08T05:37:00.827Z,89.51
2017-10-08T05:40:56.650Z,85.03
2017-10-08T05:49:45.655Z,84.65
2017-10-08T05:53:03.262Z,83.98
2017-10-08T05:55:17.062Z,83.89
2017-10-08T06:00:48.160Z,83.41
2017-10-08T06:05:47.157Z,83.32
2017-10-08T06:08:00.957Z,83.61
2017-10-08T06:10:46.833Z,83.89
2017-10-08T06:13:00.632Z,83.65
2017-10-08T06:14:42.638Z,83.41
2017-10-08T06:16:56.125Z,83.89
2017-10-08T06:19:41.956Z,83.89
2017-10-08T06:21:55.772Z,84.08
2017-10-08T06:24:41.600Z,85.13
2017-10-08T06:26:23.623Z,86.18
2017-10-08T06:30:19.698Z,87.03
2017-10-08T06:32:33.504Z,86.94
2017-10-08T06:34:15.538Z,87.32
2017-10-08T06:35:57.808Z,87.23
2017-10-08T06:40:57.439Z,88.75
2017-10-08T06:49:14.174Z,91.22
2017-10-08T06:52:00.005Z,90.94
2017-10-08T07:03:40.671Z,92.65
2017-10-08T07:05:22.377Z,93.03
2017-10-08T07:07:35.870Z,96.46
2017-10-08T07:20:20.783Z,99.69
2017-10-08T07:25:20.111Z,99.99
2017-10-08T07:34:08.559Z,99.99
2017-10-08T07:36:22.297Z,99.99
2017-10-08T07:38:36.105Z,99.99
2017-10-08T07:40:49.898Z,99.99
2017-10-08T07:44:07.252Z,99.99
2017-10-08T07:49:06.884Z,99.99
2017-10-08T07:59:36.974Z,99.99
2017-10-08T08:01:50.774Z,99.99
2017-10-08T08:04:04.512Z,99.99
2017-10-08T08:06:18.004Z,99.99
2017-10-08T08:08:00.037Z,99.99
2017-10-08T08:14:41.941Z,99.99
2017-10-08T08:17:27.202Z,99.99
2017-10-08T08:22:26.835Z,99.99
2017-10-08T08:24:40.646Z,99.99
2017-10-08T08:32:57.880Z,99.99
2017-10-08T08:35:43.709Z,99.99
2017-10-08T08:37:57.506Z,99.99
2017-10-08T08:51:45.915Z,99.99
2017-10-08T08:59:31.182Z,99.99
2017-10-08T09:02:48.794Z,99.99
2017-10-08T09:05:34.389Z,99.99
2017-10-08T09:07:48.201Z,99.99
2017-10-08T09:08:58.727Z,99.99
2017-10-08T09:11:12.530Z,99.99
2017-10-08T09:13:26.611Z,99.99
2017-10-08T09:14:36.555Z,99.99
2017-10-08T09:15:46.840Z,99.99
2017-10-08T09:16:57.091Z,99.99
2017-10-08T09:26:55.760Z,99.99
2017-10-08T09:28:06.013Z,99.99
2017-10-08T09:32:01.790Z,99.99
2017-10-08T09:38:04.997Z,99.99
2017-10-08T09:40:18.815Z,99.99
2017-10-08T09:43:04.645Z,99.99
2017-10-08T09:48:36.072Z,99.99
2017-10-08T09:56:21.612Z,95.65
2017-10-08T09:59:07.194Z,93.55
2017-10-08T10:01:52.718Z,95.03
2017-10-08T10:06:20.360Z,90.64
2017-10-08T10:08:34.477Z,91.69
2017-10-08T10:15:47.945Z,91.55
2017-10-08T10:19:05.569Z,92.41
2017-10-08T10:21:19.584Z,93.79
2017-10-08T10:23:33.643Z,91.69
2017-10-08T10:25:47.446Z,88.78
2017-10-08T10:47:51.652Z,81.88
2017-10-08T10:54:33.074Z,86
2017-10-08T11:07:10.866Z,86.58
2017-10-08T11:08:52.906Z,85.63
2017-10-08T11:12:49.066Z,82.76
2017-10-08T11:20:02.233Z,77.21
2017-10-08T11:21:44.269Z,76.25
2017-10-08T11:27:15.386Z,72.37
2017-10-08T11:29:00.696Z,71.97
2017-10-08T11:30:10.633Z,72.44
2017-10-08T11:31:20.887Z,71.3
2017-10-08T11:32:31.124Z,71.45
2017-10-08T11:33:41.388Z,70.53
2017-10-08T11:34:51.915Z,72.73
2017-10-08T11:36:01.551Z,70.62
2017-10-08T11:37:11.805Z,70.53
2017-10-08T11:38:22.061Z,70.15
2017-10-08T11:39:32.312Z,69.32
2017-10-08T11:40:42.821Z,67.11
2017-10-08T11:41:52.460Z,67.5
2017-10-08T11:43:02.726Z,67.63
2017-10-08T11:44:12.693Z,65.55
2017-10-08T11:45:22.951Z,65.94
2017-10-08T11:46:33.144Z,64.43
2017-10-08T11:47:43.094Z,63.6
2017-10-08T11:48:53.369Z,61.02
2017-10-08T11:50:03.666Z,59.58
2017-10-08T11:51:13.944Z,59.61
2017-10-08T11:52:24.127Z,59.22
2017-10-08T11:53:34.411Z,59.99
2017-10-08T11:54:44.399Z,62.16
2017-10-08T11:55:54.702Z,60.82
2017-10-08T11:57:04.655Z,58.81
2017-10-08T11:58:15.155Z,59.19
2017-10-08T11:59:25.089Z,58.39
2017-10-08T12:00:35.032Z,59.42
2017-10-08T12:01:44.983Z,61.21
2017-10-08T12:02:54.944Z,64.15
2017-10-08T12:04:05.148Z,64.63
2017-10-08T12:05:15.403Z,66.03
2017-10-08T12:06:25.661Z,68.01
2017-10-08T12:07:35.595Z,68.68
2017-10-08T12:08:45.851Z,68.87
2017-10-08T12:09:56.369Z,68.1
2017-10-08T12:11:06.616Z,68.68
2017-10-08T12:12:16.557Z,69.15
2017-10-08T12:13:26.838Z,67.34
2017-10-08T12:14:37.102Z,65.65
2017-10-08T12:15:47.650Z,64.53
2017-10-08T12:16:57.585Z,64.25
2017-10-08T12:18:07.836Z,63.48
2017-10-08T12:19:17.785Z,62.87
2017-10-08T12:20:27.723Z,61.76
2017-10-08T12:21:38.224Z,62.33
2017-10-08T12:22:48.499Z,63.73
2017-10-08T12:23:58.774Z,63.45
2017-10-08T12:25:08.709Z,64.5
2017-10-08T12:26:18.972Z,64.85
2017-10-08T12:27:29.485Z,65.23
2017-10-08T12:28:39.740Z,65.45
2017-10-08T12:29:50.005Z,65.33
2017-10-08T12:30:59.621Z,64.79
2017-10-08T12:32:09.554Z,63.83
2017-10-08T12:33:20.058Z,63.45
2017-10-08T12:34:30.309Z,62.49
2017-10-08T12:35:40.250Z,61.47
2017-10-08T12:36:50.206Z,61.66
2017-10-08T12:38:00.463Z,61.31
2017-10-08T12:39:10.665Z,61.31
2017-10-08T12:40:20.604Z,59.52
2017-10-08T12:41:30.853Z,59.68
2017-10-08T12:42:40.797Z,59.2
2017-10-08T12:43:51.058Z,59.84
2017-10-08T12:45:01.255Z,61.47
2017-10-08T12:46:11.519Z,62.14
2017-10-08T12:47:21.771Z,62.71
2017-10-08T12:48:32.036Z,60.22
2017-10-08T12:49:42.302Z,61.94
2017-10-08T12:50:52.867Z,61.82
2017-10-08T12:52:02.175Z,60.1
2017-10-08T12:53:12.435Z,60.38
2017-10-08T12:54:22.375Z,61.12
2017-10-08T12:55:32.643Z,61.02
2017-10-08T12:56:43.149Z,61.6
2017-10-08T12:57:53.408Z,61.82
2017-10-08T12:59:03.667Z,60.29
2017-10-08T13:00:13.927Z,60.13
2017-10-08T13:01:23.894Z,59.75
2017-10-08T13:02:34.402Z,60.03
2017-10-08T13:03:44.033Z,58.62
2017-10-08T13:04:54.293Z,58.24
2017-10-08T13:06:04.266Z,55.3
2017-10-08T13:07:14.531Z,54.46
2017-10-08T13:08:24.731Z,55.4
2017-10-08T13:09:34.676Z,55.01
2017-10-08T13:10:44.915Z,55.3
2017-10-08T13:11:55.173Z,55.8
2017-10-08T13:13:05.445Z,54.85
2017-10-08T13:14:15.949Z,54.66
2017-10-08T13:15:26.203Z,55.71
2017-10-08T13:16:36.151Z,54.85
2017-10-08T13:17:46.094Z,52.55
2017-10-08T13:18:56.355Z,52.83
2017-10-08T13:20:06.885Z,54.08
2017-10-08T13:21:16.509Z,54.85
2017-10-08T13:22:26.777Z,55.23
2017-10-08T13:23:37.036Z,54.37
2017-10-08T13:24:46.984Z,54.66
2017-10-08T13:25:57.506Z,55.3
2017-10-08T13:27:07.770Z,53.77
2017-10-08T13:28:17.716Z,53.77
2017-10-08T13:29:27.970Z,54.89
2017-10-08T13:30:38.222Z,54.89
2017-10-08T13:31:48.762Z,54.63
2017-10-08T13:32:59.024Z,54.82
2017-10-08T13:34:09.282Z,53.48
2017-10-08T13:35:18.918Z,53.6
2017-10-08T13:36:28.231Z,52.19
2017-10-08T13:37:38.753Z,53.86
2017-10-08T13:38:49.022Z,54.72
2017-10-08T13:39:59.276Z,55.78
2017-10-08T13:41:09.563Z,54.44
2017-10-08T13:42:19.523Z,54.63
2017-10-08T13:43:29.733Z,55.21
2017-10-08T13:44:39.994Z,54.85
2017-10-08T13:45:50.258Z,53.82
2017-10-08T13:47:00.531Z,52.79
2017-10-08T13:48:10.777Z,50.9
2017-10-08T13:49:20.982Z,50.34
2017-10-08T13:50:31.108Z,51.81
2017-10-08T13:51:41.383Z,53.05
2017-10-08T13:52:51.344Z,53.6
2017-10-08T13:54:01.298Z,54.24
2017-10-08T13:55:11.507Z,54.44
2017-10-08T13:56:21.778Z,55.85
2017-10-08T13:57:32.032Z,56.23
2017-10-08T13:58:41.960Z,57.16
2017-10-08T13:59:51.582Z,57.26
2017-10-08T14:01:01.778Z,56.49
2017-10-08T14:02:12.036Z,56.87
2017-10-08T14:03:21.977Z,56.59
2017-10-08T14:04:31.958Z,56.97
2017-10-08T14:05:42.213Z,56.3
2017-10-08T14:06:52.716Z,55.82
2017-10-08T14:08:02.664Z,55.98
2017-10-08T14:09:12.919Z,56.46
2017-10-08T14:10:23.166Z,55.15
2017-10-08T14:11:33.677Z,54.67
2017-10-08T14:12:43.650Z,55.15
2017-10-08T14:13:53.915Z,55.98
2017-10-08T14:15:03.852Z,56.75
2017-10-08T14:16:14.103Z,56.46
2017-10-08T14:17:24.350Z,55.69
2017-10-08T14:18:34.898Z,57.04
2017-10-08T14:19:45.185Z,57.01
2017-10-08T14:20:55.432Z,56.72
2017-10-08T14:22:05.364Z,56.24
2017-10-08T14:23:15.303Z,57.1
2017-10-08T14:24:25.839Z,57.01
2017-10-08T14:25:35.773Z,57.87
2017-10-08T14:26:46.038Z,58.34
2017-10-08T14:27:56.291Z,57.87
2017-10-08T14:29:06.544Z,57.87
2017-10-08T14:30:17.048Z,56.53
2017-10-08T14:31:27.301Z,57.48
2017-10-08T14:32:37.548Z,57.87
2017-10-08T14:33:47.797Z,59.11
2017-10-08T14:34:58.072Z,59.66
2017-10-08T14:36:07.945Z,60.61
2017-10-08T14:37:18.221Z,61.09
2017-10-08T14:38:28.486Z,60.99
2017-10-08T14:39:38.114Z,61.76
2017-10-08T14:40:47.731Z,60.9
2017-10-08T14:41:58.223Z,61.09
2017-10-08T14:43:07.852Z,61.57
2017-10-08T14:44:17.488Z,62.24
2017-10-08T14:45:27.739Z,61.85
2017-10-08T14:46:37.682Z,61.12
2017-10-08T14:47:47.861Z,60.64
2017-10-08T14:48:57.803Z,61.12
2017-10-08T14:50:08.058Z,60.64
2017-10-08T14:51:18.297Z,61.02
2017-10-08T14:52:28.228Z,60.83
2017-10-08T14:53:38.424Z,60.55
2017-10-08T14:54:48.680Z,59.81
2017-10-08T14:55:58.931Z,59.88
2017-10-08T14:57:09.191Z,59.4
2017-10-08T14:58:19.465Z,59.88
2017-10-08T14:59:29.965Z,59.11
2017-10-08T15:00:40.224Z,59.78
2017-10-08T15:01:50.174Z,59.97
2017-10-08T15:03:00.475Z,59.2
2017-10-08T15:04:10.770Z,59.14
2017-10-08T15:05:20.974Z,59.43
2017-10-08T15:06:31.243Z,59.27
2017-10-08T15:07:41.504Z,58.31
2017-10-08T15:08:51.765Z,58.28
2017-10-08T15:10:02.036Z,58.09
2017-10-08T15:11:12.565Z,58.47
2017-10-08T15:12:22.506Z,58.73
2017-10-08T15:13:32.448Z,58.37
2017-10-08T15:14:42.711Z,58.54
2017-10-08T15:15:52.652Z,58.56
2017-10-08T15:17:03.157Z,58.86
2017-10-08T15:18:13.416Z,58.34
2017-10-08T15:19:23.675Z,59.3
2017-10-08T15:20:33.973Z,59.4
2017-10-08T15:21:44.240Z,59.2
2017-10-08T15:22:54.751Z,59.11
2017-10-08T15:24:04.688Z,59.75
2017-10-08T15:25:14.638Z,60.42
2017-10-08T15:26:24.887Z,60.61
2017-10-08T15:27:34.509Z,60.33
2017-10-08T15:28:45.075Z,61.44
2017-10-08T15:29:55.351Z,61.44
2017-10-08T15:31:05.314Z,61.54
2017-10-08T15:32:15.256Z,61.69
2017-10-08T15:33:25.536Z,62.18
2017-10-08T15:34:36.084Z,62.75
2017-10-08T15:35:46.030Z,61.6
2017-10-08T15:36:56.001Z,61.03
2017-10-08T15:38:06.247Z,61.32
2017-10-08T15:39:16.502Z,61.79
2017-10-08T15:40:27.007Z,62.18
2017-10-08T15:41:37.265Z,62.27
2017-10-08T15:42:47.501Z,62.18
2017-10-08T15:43:57.134Z,61.79
2017-10-08T15:45:07.388Z,62.46
2017-10-08T15:46:17.885Z,62.46
2017-10-08T15:47:28.130Z,63.03
2017-10-08T15:48:38.387Z,62.75
2017-10-08T15:49:48.330Z,62.65
2017-10-08T15:50:58.270Z,62.75
2017-10-08T15:52:08.765Z,63.03
2017-10-08T15:53:18.391Z,63.32
2017-10-08T15:54:28.638Z,64.09
2017-10-08T15:55:38.912Z,63.8
2017-10-08T15:56:49.169Z,63.42
2017-10-08T15:57:59.668Z,63.8
2017-10-08T15:59:09.938Z,63.7
2017-10-08T16:00:20.206Z,63.7
2017-10-08T16:01:30.452Z,64.09
2017-10-08T16:02:40.400Z,64.28
2017-10-08T16:03:50.928Z,65.3
2017-10-08T16:05:00.874Z,65.77
2017-10-08T16:06:10.801Z,66.06
2017-10-08T16:07:20.729Z,66.15
2017-10-08T16:08:30.977Z,66.53
2017-10-08T16:09:41.489Z,67.58
2017-10-08T16:10:51.739Z,67.93
2017-10-08T16:12:01.989Z,68.41
2017-10-08T16:13:12.242Z,68.98
2017-10-08T16:14:21.558Z,69.08
2017-10-08T16:15:32.050Z,69.56
2017-10-08T16:16:41.991Z,69.84
2017-10-08T16:17:51.923Z,70.13
2017-10-08T16:19:02.189Z,69.71
2017-10-08T16:20:11.822Z,70
2017-10-08T16:21:22.321Z,70.67
2017-10-08T16:22:32.577Z,70.86
2017-10-08T16:23:42.847Z,71.04
2017-10-08T16:24:52.795Z,71.33
2017-10-08T16:26:03.049Z,71.04
2017-10-08T16:27:13.770Z,71.52
2017-10-08T16:28:24.012Z,72.09
2017-10-08T16:29:34.293Z,72.28
2017-10-08T16:30:44.554Z,72.09
2017-10-08T16:31:54.816Z,72.96
2017-10-08T16:33:05.307Z,73.21
2017-10-08T16:34:15.258Z,72.34
2017-10-08T16:35:25.518Z,73.11
2017-10-08T16:36:35.454Z,73.01
2017-10-08T16:37:45.391Z,71.87
2017-10-08T16:38:55.896Z,72.06
2017-10-08T16:40:05.835Z,71.96
2017-10-08T16:41:15.817Z,72.63
2017-10-08T16:42:26.082Z,72.34
2017-10-08T16:43:36.331Z,71.96
2017-10-08T16:44:46.526Z,72.44
2017-10-08T16:45:56.136Z,73.11
2017-10-08T16:47:06.387Z,73.21
2017-10-08T16:48:15.989Z,73.68
2017-10-08T16:49:25.920Z,73.39
2017-10-08T16:50:36.465Z,73.65
2017-10-08T16:51:46.738Z,73.96
2017-10-08T16:52:57.000Z,74.02
2017-10-08T16:54:07.237Z,74.69
2017-10-08T16:55:17.509Z,74.69
2017-10-08T16:56:27.697Z,74.4
2017-10-08T16:57:37.938Z,74.31
2017-10-08T16:58:48.405Z,74.4
2017-10-08T16:59:58.675Z,74.5
2017-10-08T17:01:08.910Z,74.12
2017-10-08T17:02:19.099Z,74.4
2017-10-08T17:03:29.351Z,74.4
2017-10-08T17:04:39.306Z,74.69
2017-10-08T17:05:49.239Z,74.4
2017-10-08T17:06:59.494Z,74.4
2017-10-08T17:08:10.071Z,75.16
2017-10-08T17:09:20.005Z,74.88
2017-10-08T17:10:30.265Z,75.36
2017-10-08T17:11:40.520Z,75.45
2017-10-08T17:12:50.776Z,75.93
2017-10-08T17:14:01.276Z,75.64
2017-10-08T17:15:11.209Z,75.99
2017-10-08T17:16:21.448Z,76.5
2017-10-08T17:17:31.694Z,76.5
2017-10-08T17:18:41.957Z,76.4
2017-10-08T17:19:52.479Z,76.98
2017-10-08T17:21:02.440Z,76.46
2017-10-08T17:22:12.403Z,76.65
2017-10-08T17:23:22.656Z,77.22
2017-10-08T17:24:32.917Z,77.13
2017-10-08T17:25:43.406Z,77.22
2017-10-08T17:26:53.669Z,77.42
2017-10-08T17:28:03.912Z,78.08
2017-10-08T17:29:14.169Z,77.32
2017-10-08T17:30:24.437Z,77.61
2017-10-08T17:31:34.965Z,77.13
2017-10-08T17:32:44.919Z,77.8
2017-10-08T17:33:54.847Z,76.94
2017-10-08T17:35:05.139Z,76.75
2017-10-08T17:36:15.387Z,77.42
2017-10-08T17:37:25.581Z,76.75
2017-10-08T17:38:35.514Z,77.22
2017-10-08T17:39:45.469Z,77.22
2017-10-08T17:40:55.731Z,77.89
2017-10-08T17:42:05.988Z,77.42
2017-10-08T17:43:16.509Z,77.98
2017-10-08T17:44:26.754Z,78.27
2017-10-08T17:45:37.008Z,78.37
2017-10-08T17:46:47.262Z,77.98
2017-10-08T17:47:57.514Z,78.17
2017-10-08T17:49:08.014Z,78.65
2017-10-08T17:50:18.264Z,78.65
2017-10-08T17:51:28.526Z,78.75
2017-10-08T17:52:38.838Z,78.94
2017-10-08T17:53:49.078Z,79.22
2017-10-08T17:54:59.567Z,79.03
2017-10-08T17:56:09.182Z,79.13
2017-10-08T17:57:19.103Z,79.57
2017-10-08T17:58:29.370Z,79.75
2017-10-08T17:59:39.635Z,80.52
2017-10-08T18:00:49.820Z,80.42
2017-10-08T18:02:00.052Z,80.71
2017-10-08T18:03:10.304Z,81.09
2017-10-08T18:04:20.562Z,80.99
2017-10-08T18:05:29.871Z,81.28
2017-10-08T18:06:40.052Z,82.04
2017-10-08T18:07:50.311Z,82.14
2017-10-08T18:09:00.542Z,82.51
2017-10-08T18:10:10.467Z,82.61
2017-10-08T18:11:20.413Z,82.42
2017-10-08T18:12:30.599Z,82.7
2017-10-08T18:13:40.548Z,82.9
2017-10-08T18:14:50.807Z,82.9
2017-10-08T18:16:00.850Z,83.18
2017-10-08T18:17:11.091Z,83.37
2017-10-08T18:18:20.983Z,83.18
2017-10-08T18:19:30.923Z,83.65
2017-10-08T18:20:41.173Z,83.37
2017-10-08T18:21:51.432Z,83.56
2017-10-08T18:23:01.371Z,83.56
2017-10-08T18:24:11.855Z,83.52
2017-10-08T18:25:22.122Z,84
2017-10-08T18:26:32.391Z,83.75
2017-10-08T18:27:42.662Z,83.62
2017-10-08T18:28:52.596Z,84
2017-10-08T18:30:03.091Z,84.19
2017-10-08T18:31:13.348Z,83.81
2017-10-08T18:32:23.597Z,84.56
2017-10-08T18:33:33.854Z,84.28
2017-10-08T18:34:44.096Z,84.09
2017-10-08T18:35:54.689Z,85.04
2017-10-08T18:37:04.630Z,84.76
2017-10-08T18:38:14.885Z,85.24
2017-10-08T18:39:25.137Z,84.95
2017-10-08T18:40:35.431Z,84.66
2017-10-08T18:41:45.929Z,85.24
2017-10-08T18:42:56.214Z,84.85
2017-10-08T18:44:06.470Z,85.33
2017-10-08T18:45:16.718Z,84.95
2017-10-08T18:46:26.879Z,84.76
2017-10-08T18:47:37.406Z,84.85
2017-10-08T18:48:47.651Z,85.14
2017-10-08T18:49:57.889Z,84.76
2017-10-08T18:51:07.828Z,84.85
2017-10-08T18:52:18.098Z,85.04
2017-10-08T18:53:28.657Z,85.24
2017-10-08T18:54:38.902Z,84.95
2017-10-08T18:55:49.166Z,85.14
2017-10-08T18:56:59.108Z,84.95
2017-10-08T18:58:09.369Z,84.95
2017-10-08T18:59:19.546Z,84.85
2017-10-08T19:00:29.497Z,85.52
2017-10-08T19:01:39.756Z,85.52
2017-10-08T19:02:49.998Z,85.42
2017-10-08T19:04:00.258Z,85.42
2017-10-08T19:05:10.756Z,85.52
2017-10-08T19:06:21.000Z,85.42
2017-10-08T19:07:31.239Z,85.42
2017-10-08T19:08:41.480Z,85.42
2017-10-08T19:09:51.409Z,85.52
2017-10-08T19:11:01.902Z,85.61
2017-10-08T19:12:11.838Z,85.71
2017-10-08T19:13:21.778Z,86.09
2017-10-08T19:14:32.028Z,85.9
2017-10-08T19:15:41.977Z,85.95
2017-10-08T19:16:52.478Z,85.86
2017-10-08T19:18:02.746Z,86.05
2017-10-08T19:19:13.004Z,85.86
2017-10-08T19:20:23.260Z,85.99
2017-10-08T19:21:33.516Z,86.05
2017-10-08T19:22:44.023Z,86.33
2017-10-08T19:23:53.949Z,86.14
2017-10-08T19:25:04.197Z,86.14
2017-10-08T19:26:13.815Z,86.9
2017-10-08T19:27:23.752Z,86.71
2017-10-08T19:28:33.616Z,86.61
2017-10-08T19:29:43.888Z,86.61
2017-10-08T19:30:53.833Z,86.52
2017-10-08T19:32:03.761Z,86.52
2017-10-08T19:33:13.378Z,86.71
2017-10-08T19:34:23.254Z,86.33
2017-10-08T19:35:33.505Z,87.28
2017-10-08T19:36:43.745Z,87.19
2017-10-08T19:37:53.682Z,87.09
2017-10-08T19:39:03.969Z,87.19
2017-10-08T19:40:14.481Z,87.38
2017-10-08T19:41:24.422Z,87.66
2017-10-08T19:42:34.372Z,87.38
2017-10-08T19:43:44.617Z,87.85
2017-10-08T19:44:54.869Z,88.13
2017-10-08T19:46:05.052Z,88.13
2017-10-08T19:47:15.291Z,88.13
2017-10-08T19:48:25.539Z,88.61
2017-10-08T19:49:35.801Z,88.33
2017-10-08T19:50:45.741Z,88.52
2017-10-08T19:51:55.945Z,88.61
2017-10-08T19:53:05.914Z,89.18
2017-10-08T19:54:16.173Z,89.18
2017-10-08T19:55:26.100Z,89.18
2017-10-08T19:56:36.041Z,89.37
2017-10-08T19:57:46.256Z,89.56
2017-10-08T19:58:56.197Z,89.47
2017-10-08T20:00:05.820Z,90.04
2017-10-08T20:01:15.441Z,90.33
2017-10-08T20:02:25.689Z,90.33
2017-10-08T20:03:35.553Z,90
2017-10-08T20:04:45.797Z,91.23
2017-10-08T20:05:56.047Z,90.94
2017-10-08T20:07:06.300Z,91.04
2017-10-08T20:08:16.235Z,90.75
2017-10-08T20:09:26.415Z,90.94
2017-10-08T20:10:36.026Z,91.04
2017-10-08T20:11:46.301Z,91.04
2017-10-08T20:12:56.548Z,91.23
2017-10-08T20:14:06.798Z,91.23
2017-10-08T20:15:17.299Z,92.18
2017-10-08T20:16:26.919Z,91.99
2017-10-08T20:17:36.853Z,92.37
2017-10-08T20:18:47.115Z,92.18
2017-10-08T20:19:57.041Z,92.27
2017-10-08T20:21:07.238Z,93.13
2017-10-08T20:22:16.540Z,93.13
2017-10-08T20:23:26.818Z,93.23
2017-10-08T20:24:37.077Z,93.13
2017-10-08T20:25:47.317Z,93.41
2017-10-08T20:26:57.493Z,93.04
2017-10-08T20:28:07.741Z,93.41
2017-10-08T20:29:17.700Z,93.13
2017-10-08T20:30:27.937Z,93.89
2017-10-08T20:31:38.197Z,93.51
2017-10-08T20:32:48.374Z,93.7
2017-10-08T20:33:58.618Z,93.99
2017-10-08T20:35:08.564Z,94.08
2017-10-08T20:36:18.827Z,94.08
2017-10-08T20:37:29.106Z,94.27
2017-10-08T20:38:39.282Z,94.46
2017-10-08T20:39:49.519Z,94.56
2017-10-08T20:40:59.451Z,94.84
2017-10-08T20:42:09.411Z,94.65
2017-10-08T20:43:19.335Z,94.65
2017-10-08T20:44:29.211Z,94.65
2017-10-08T20:45:39.469Z,94.79
2017-10-08T20:46:49.710Z,94.93
2017-10-08T20:47:59.642Z,94.98
2017-10-08T20:49:09.905Z,95.55
2017-10-08T20:50:20.086Z,95.65
2017-10-08T20:51:29.722Z,95.55
2017-10-08T20:52:39.975Z,95.84
2017-10-08T20:53:49.894Z,96.03
2017-10-08T20:54:59.825Z,96.5
2017-10-08T20:56:10.339Z,96.22
2017-10-08T20:57:20.582Z,96.6
2017-10-08T20:58:30.832Z,96.41
2017-10-08T20:59:41.091Z,96.79
2017-10-08T21:00:51.346Z,96.22
2017-10-08T21:02:01.898Z,96.12
2017-10-08T21:03:11.834Z,96.6
2017-10-08T21:04:22.078Z,96.69
2017-10-08T21:05:32.018Z,97.07
2017-10-08T21:06:42.256Z,97.17
2017-10-08T21:07:52.757Z,97.55
2017-10-08T21:09:03.010Z,97.45
2017-10-08T21:10:12.938Z,97.74
2017-10-08T21:11:23.171Z,97.83
2017-10-08T21:12:33.094Z,98.12
2017-10-08T21:13:42.954Z,97.64
2017-10-08T21:14:52.889Z,98.02
2017-10-08T21:16:02.830Z,98.02
2017-10-08T21:17:13.081Z,98.31
2017-10-08T21:18:23.323Z,98.12
2017-10-08T21:19:33.506Z,98.21
2017-10-08T21:20:43.438Z,98.97
2017-10-08T21:21:53.368Z,98.88
2017-10-08T21:23:03.635Z,98.97
2017-10-08T21:24:13.878Z,98.59
2017-10-08T21:25:24.367Z,99.44
2017-10-08T21:26:34.605Z,98.88
2017-10-08T21:27:44.529Z,99.26
2017-10-08T21:28:54.761Z,98.59
2017-10-08T21:30:04.366Z,98.83
2017-10-08T21:31:14.876Z,99.35
2017-10-08T21:32:25.120Z,99.07
2017-10-08T21:33:35.367Z,98.97
2017-10-08T21:34:45.308Z,99.16
2017-10-08T21:35:55.540Z,99.16
2017-10-08T21:37:06.029Z,99.16
2017-10-08T21:38:16.270Z,98.97
2017-10-08T21:39:26.518Z,99.26
2017-10-08T21:40:36.455Z,99.16
2017-10-08T21:41:46.703Z,99.11
2017-10-08T21:42:57.185Z,99.26
2017-10-08T21:44:07.427Z,99.77
2017-10-08T21:45:17.683Z,99.26
2017-10-08T21:46:27.928Z,99.26
2017-10-08T21:47:37.847Z,98.88
2017-10-08T21:48:48.344Z,99.26
2017-10-08T21:49:58.623Z,99.54
2017-10-08T21:51:08.854Z,99.99
2017-10-08T21:52:19.108Z,99.58
2017-10-08T21:53:29.057Z,99.64
2017-10-08T21:54:39.560Z,99.58
2017-10-08T21:55:49.492Z,99.68
2017-10-08T21:56:59.427Z,99.58
2017-10-08T21:58:09.688Z,99.4
2017-10-08T21:59:19.925Z,99.68
2017-10-08T22:00:30.422Z,99.99
2017-10-08T22:01:40.658Z,99.58
2017-10-08T22:02:50.581Z,99.77
2017-10-08T22:04:00.841Z,99.58
2017-10-08T22:05:11.073Z,99.49
2017-10-08T22:06:21.572Z,99.97
2017-10-08T22:07:31.512Z,99.97
2017-10-08T22:08:41.746Z,99.99
2017-10-08T22:09:51.361Z,99.3
2017-10-08T22:11:01.598Z,99.68
2017-10-08T22:12:12.097Z,99.68
2017-10-08T22:13:22.373Z,99.68
2017-10-08T22:14:32.621Z,99.3
2017-10-08T22:15:42.860Z,99.58
2017-10-08T22:16:53.103Z,99.77
2017-10-08T22:18:03.590Z,99.77
2017-10-08T22:19:13.829Z,99.97
2017-10-08T22:20:24.075Z,99.77
2017-10-08T22:21:34.005Z,99.99
2017-10-08T22:22:43.927Z,99.99
2017-10-08T22:23:54.422Z,99.99
2017-10-08T22:25:04.034Z,99.99
2017-10-08T22:26:13.965Z,99.99
2017-10-08T22:27:23.892Z,99.99
2017-10-08T22:28:34.161Z,99.99
2017-10-08T22:29:44.021Z,99.99
2017-10-08T22:30:54.275Z,99.99
2017-10-08T22:32:04.515Z,99.99
2017-10-08T22:33:14.773Z,99.99
2017-10-08T22:34:25.016Z,99.99
2017-10-08T22:35:35.559Z,99.99
2017-10-08T22:36:45.787Z,99.99
2017-10-08T22:37:55.710Z,99.99
2017-10-08T22:39:05.640Z,99.99
2017-10-08T22:40:15.884Z,99.99
2017-10-08T22:41:26.373Z,99.99
2017-10-08T22:42:36.613Z,99.99
2017-10-08T22:43:46.855Z,99.99
2017-10-08T22:44:57.100Z,99.99
2017-10-08T22:46:07.358Z,99.99
2017-10-08T22:47:17.849Z,99.99
2017-10-08T22:48:28.093Z,99.99
2017-10-08T22:49:38.014Z,99.99
2017-10-08T22:50:48.250Z,99.99
2017-10-08T22:51:58.543Z,99.99
2017-10-08T22:53:09.028Z,99.99
2017-10-08T22:54:18.947Z,99.99
2017-10-08T22:55:28.871Z,99.99
2017-10-08T22:56:39.126Z,99.99
2017-10-08T22:57:49.370Z,99.99
2017-10-08T22:58:59.882Z,99.99
2017-10-08T23:00:10.133Z,99.99
2017-10-08T23:01:20.378Z,99.99
2017-10-08T23:02:29.994Z,99.99
2017-10-08T23:03:40.237Z,99.99
2017-10-08T23:04:50.727Z,99.99
2017-10-08T23:06:00.659Z,99.99
2017-10-08T23:07:10.576Z,99.99
2017-10-08T23:08:20.852Z,99.99
2017-10-08T23:09:31.085Z,99.99
2017-10-08T23:10:41.582Z,99.99
2017-10-08T23:11:51.840Z,99.99
2017-10-08T23:13:02.077Z,99.99
2017-10-08T23:14:11.718Z,99.99
2017-10-08T23:15:21.960Z,99.99
2017-10-08T23:16:32.163Z,99.99
2017-10-08T23:17:42.408Z,99.99
2017-10-08T23:18:52.662Z,99.99
2017-10-08T23:20:02.910Z,99.99
2017-10-08T23:21:13.154Z,99.99
2017-10-08T23:22:23.638Z,99.99
2017-10-08T23:23:33.875Z,99.99
2017-10-08T23:24:44.117Z,99.99
2017-10-08T23:25:54.358Z,99.99
2017-10-08T23:27:04.609Z,99.99
2017-10-08T23:28:15.107Z,99.99
2017-10-08T23:29:25.044Z,99.99
2017-10-08T23:30:34.980Z,99.99
2017-10-08T23:31:45.211Z,99.99
2017-10-08T23:32:55.466Z,99.99
2017-10-08T23:34:05.954Z,99.99
2017-10-08T23:35:15.870Z,99.99
2017-10-08T23:36:26.366Z,99.99
2017-10-08T23:37:36.315Z,99.99
2017-10-08T23:38:46.554Z,99.99
2017-10-08T23:39:57.043Z,99.99
2017-10-08T23:41:07.278Z,99.99
2017-10-08T23:42:17.206Z,99.99
2017-10-08T23:43:27.135Z,99.99
2017-10-08T23:44:37.381Z,99.99